sensor_id;sensor_type;location;lat;lon;timestamp;pressure;altitude;pressure_sealevel;temperature;humidity
36248;BME280;22287;50.824;5.644;2023-02-04T00:00:10;102464.06;;;8.42;89.41
36248;BME280;22287;50.824;5.644;2023-02-04T00:02:41;102468.63;;;8.21;90.42
36248;BME280;22287;50.824;5.644;2023-02-04T00:05:09;102473.59;;;8.49;90.23
36248;BME280;22287;50.824;5.644;2023-02-04T00:07:39;102473.84;;;8.62;88.42
36248;BME280;22287;50.824;5.644;2023-02-04T00:10:07;102475.31;;;8.32;90.49
36248;BME280;22287;50.824;5.644;2023-02-04T00:12:35;102479.13;;;8.27;89.72
36248;BME280;22287;50.824;5.644;2023-02-04T00:15:02;102475.63;;;8.44;90.12
36248;BME280;22287;50.824;5.644;2023-02-04T00:17:29;102477.22;;;8.30;89.88
36248;BME280;22287;50.824;5.644;2023-02-04T00:19:56;102478.72;;;8.16;90.88
36248;BME280;22287;50.824;5.644;2023-02-04T00:22:23;102476.47;;;8.26;90.67
36248;BME280;22287;50.824;5.644;2023-02-04T00:24:51;102483.63;;;8.27;90.38
36248;BME280;22287;50.824;5.644;2023-02-04T00:27:21;102477.66;;;8.58;88.38
36248;BME280;22287;50.824;5.644;2023-02-04T00:29:48;102476.53;;;8.62;87.75
36248;BME280;22287;50.824;5.644;2023-02-04T00:32:14;102477.81;;;8.36;88.47
36248;BME280;22287;50.824;5.644;2023-02-04T00:34:41;102487.84;;;8.14;90.06
36248;BME280;22287;50.824;5.644;2023-02-04T00:37:08;102491.34;;;8.35;89.28
36248;BME280;22287;50.824;5.644;2023-02-04T00:39:36;102491.63;;;8.28;88.80
36248;BME280;22287;50.824;5.644;2023-02-04T00:42:04;102501.56;;;8.47;88.10
36248;BME280;22287;50.824;5.644;2023-02-04T00:44:31;102501.78;;;8.42;88.02
36248;BME280;22287;50.824;5.644;2023-02-04T00:47:00;102501.59;;;8.26;89.07
36248;BME280;22287;50.824;5.644;2023-02-04T00:49:28;102496.47;;;8.20;89.30
36248;BME280;22287;50.824;5.644;2023-02-04T00:51:55;102499.31;;;8.17;89.50
36248;BME280;22287;50.824;5.644;2023-02-04T00:54:21;102500.16;;;8.38;88.45
36248;BME280;22287;50.824;5.644;2023-02-04T00:56:48;102498.06;;;8.45;87.84
36248;BME280;22287;50.824;5.644;2023-02-04T00:59:15;102512.56;;;8.03;89.66
36248;BME280;22287;50.824;5.644;2023-02-04T01:01:43;102504.66;;;8.19;88.94
36248;BME280;22287;50.824;5.644;2023-02-04T01:04:10;102502.28;;;8.32;88.88
36248;BME280;22287;50.824;5.644;2023-02-04T01:06:36;102506.97;;;8.26;88.70
36248;BME280;22287;50.824;5.644;2023-02-04T01:09:03;102507.31;;;8.39;87.41
36248;BME280;22287;50.824;5.644;2023-02-04T01:11:31;102508.25;;;8.57;86.26
36248;BME280;22287;50.824;5.644;2023-02-04T01:13:58;102502.03;;;8.73;85.50
36248;BME280;22287;50.824;5.644;2023-02-04T01:16:25;102510.22;;;8.53;86.05
36248;BME280;22287;50.824;5.644;2023-02-04T01:18:53;102509.22;;;8.73;85.41
36248;BME280;22287;50.824;5.644;2023-02-04T01:21:23;102510.41;;;8.67;84.96
36248;BME280;22287;50.824;5.644;2023-02-04T01:23:50;102513.63;;;8.57;84.94
36248;BME280;22287;50.824;5.644;2023-02-04T01:26:18;102515.53;;;8.55;85.50
36248;BME280;22287;50.824;5.644;2023-02-04T01:28:46;102509.22;;;8.73;84.80
36248;BME280;22287;50.824;5.644;2023-02-04T01:31:13;102511.13;;;8.71;84.72
36248;BME280;22287;50.824;5.644;2023-02-04T01:33:40;102517.94;;;8.97;82.88
36248;BME280;22287;50.824;5.644;2023-02-04T01:36:07;102521.88;;;9.08;82.35
36248;BME280;22287;50.824;5.644;2023-02-04T01:38:34;102508.38;;;9.25;81.39
36248;BME280;22287;50.824;5.644;2023-02-04T01:41:01;102515.59;;;9.08;82.59
36248;BME280;22287;50.824;5.644;2023-02-04T01:43:30;102514.19;;;9.35;81.02
36248;BME280;22287;50.824;5.644;2023-02-04T01:45:57;102516.41;;;9.27;80.98
36248;BME280;22287;50.824;5.644;2023-02-04T01:48:24;102527.09;;;9.28;81.40
36248;BME280;22287;50.824;5.644;2023-02-04T01:51:02;102524.03;;;9.36;80.88
36248;BME280;22287;50.824;5.644;2023-02-04T01:53:31;102524.50;;;9.27;81.10
36248;BME280;22287;50.824;5.644;2023-02-04T01:55:59;102516.94;;;9.33;80.67
36248;BME280;22287;50.824;5.644;2023-02-04T01:58:29;102518.84;;;9.31;80.36
36248;BME280;22287;50.824;5.644;2023-02-04T02:00:57;102513.97;;;9.04;81.32
36248;BME280;22287;50.824;5.644;2023-02-04T02:03:24;102511.28;;;9.04;81.41
36248;BME280;22287;50.824;5.644;2023-02-04T02:05:53;102515.38;;;9.29;80.91
36248;BME280;22287;50.824;5.644;2023-02-04T02:08:24;102512.25;;;9.20;81.06
36248;BME280;22287;50.824;5.644;2023-02-04T02:10:51;102512.75;;;8.75;82.45
36248;BME280;22287;50.824;5.644;2023-02-04T02:13:18;102520.09;;;9.07;82.04
36248;BME280;22287;50.824;5.644;2023-02-04T02:15:46;102519.25;;;9.24;80.82
36248;BME280;22287;50.824;5.644;2023-02-04T02:18:14;102519.97;;;9.44;79.59
36248;BME280;22287;50.824;5.644;2023-02-04T02:20:42;102528.72;;;9.32;79.73
36248;BME280;22287;50.824;5.644;2023-02-04T02:26:15;102520.19;;;9.06;80.94
36248;BME280;22287;50.824;5.644;2023-02-04T02:28:43;102515.94;;;8.83;82.06
36248;BME280;22287;50.824;5.644;2023-02-04T02:31:14;102501.03;;;8.93;81.58
36248;BME280;22287;50.824;5.644;2023-02-04T02:33:41;102509.78;;;8.98;81.37
36248;BME280;22287;50.824;5.644;2023-02-04T02:36:08;102507.72;;;9.03;81.02
36248;BME280;22287;50.824;5.644;2023-02-04T02:38:36;102504.16;;;9.03;81.04
36248;BME280;22287;50.824;5.644;2023-02-04T02:41:03;102512.94;;;8.89;80.88
36248;BME280;22287;50.824;5.644;2023-02-04T02:43:30;102518.03;;;9.12;80.54
36248;BME280;22287;50.824;5.644;2023-02-04T02:45:58;102520.09;;;9.07;80.52
36248;BME280;22287;50.824;5.644;2023-02-04T02:48:26;102526.38;;;9.08;80.40
36248;BME280;22287;50.824;5.644;2023-02-04T02:50:54;102526.94;;;9.14;80.21
36248;BME280;22287;50.824;5.644;2023-02-04T02:53:21;102526.78;;;9.17;79.94
36248;BME280;22287;50.824;5.644;2023-02-04T02:55:48;102531.19;;;9.01;80.57
36248;BME280;22287;50.824;5.644;2023-02-04T02:58:26;102531.78;;;9.08;80.39
36248;BME280;22287;50.824;5.644;2023-02-04T03:00:55;102534.38;;;9.09;80.04
36248;BME280;22287;50.824;5.644;2023-02-04T03:03:30;102536.38;;;9.06;80.12
36248;BME280;22287;50.824;5.644;2023-02-04T03:06:02;102540.75;;;8.72;81.09
36248;BME280;22287;50.824;5.644;2023-02-04T03:08:30;102551.06;;;8.63;81.74
36248;BME280;22287;50.824;5.644;2023-02-04T03:10:57;102554.13;;;8.74;81.18
36248;BME280;22287;50.824;5.644;2023-02-04T03:13:24;102562.41;;;8.51;82.15
36248;BME280;22287;50.824;5.644;2023-02-04T03:15:51;102554.50;;;8.48;82.20
36248;BME280;22287;50.824;5.644;2023-02-04T03:18:19;102562.22;;;8.55;82.30
36248;BME280;22287;50.824;5.644;2023-02-04T03:20:47;102551.94;;;8.63;82.19
36248;BME280;22287;50.824;5.644;2023-02-04T03:23:15;102562.72;;;8.82;81.32
36248;BME280;22287;50.824;5.644;2023-02-04T03:25:43;102556.88;;;8.91;80.76
36248;BME280;22287;50.824;5.644;2023-02-04T03:28:10;102563.44;;;8.85;80.90
36248;BME280;22287;50.824;5.644;2023-02-04T03:30:36;102575.78;;;8.72;81.08
36248;BME280;22287;50.824;5.644;2023-02-04T03:33:03;102572.13;;;8.73;81.12
36248;BME280;22287;50.824;5.644;2023-02-04T03:35:30;102574.97;;;8.89;80.30
36248;BME280;22287;50.824;5.644;2023-02-04T03:37:57;102574.78;;;8.92;80.05
36248;BME280;22287;50.824;5.644;2023-02-04T03:40:23;102586.25;;;8.97;79.68
36248;BME280;22287;50.824;5.644;2023-02-04T03:42:50;102588.72;;;9.02;79.02
36248;BME280;22287;50.824;5.644;2023-02-04T03:45:17;102584.59;;;8.95;79.04
36248;BME280;22287;50.824;5.644;2023-02-04T03:47:44;102583.56;;;9.14;78.16
36248;BME280;22287;50.824;5.644;2023-02-04T03:50:11;102582.88;;;9.11;78.21
36248;BME280;22287;50.824;5.644;2023-02-04T03:52:39;102591.84;;;9.11;77.88
36248;BME280;22287;50.824;5.644;2023-02-04T03:55:06;102590.13;;;9.27;77.14
36248;BME280;22287;50.824;5.644;2023-02-04T03:57:32;102588.81;;;9.17;76.98
36248;BME280;22287;50.824;5.644;2023-02-04T03:59:59;102597.97;;;8.96;77.76
36248;BME280;22287;50.824;5.644;2023-02-04T04:02:26;102602.56;;;8.94;77.79
36248;BME280;22287;50.824;5.644;2023-02-04T04:04:53;102604.09;;;8.81;78.12
36248;BME280;22287;50.824;5.644;2023-02-04T04:07:19;102616.78;;;8.79;78.09
36248;BME280;22287;50.824;5.644;2023-02-04T04:09:46;102623.50;;;8.89;77.74
36248;BME280;22287;50.824;5.644;2023-02-04T04:12:13;102626.69;;;8.60;78.61
36248;BME280;22287;50.824;5.644;2023-02-04T04:14:40;102626.25;;;8.69;78.17
36248;BME280;22287;50.824;5.644;2023-02-04T04:17:07;102624.34;;;8.52;78.58
36248;BME280;22287;50.824;5.644;2023-02-04T04:19:33;102624.56;;;8.48;79.13
36248;BME280;22287;50.824;5.644;2023-02-04T04:22:01;102619.91;;;8.70;78.26
36248;BME280;22287;50.824;5.644;2023-02-04T04:24:27;102630.63;;;8.71;78.42
36248;BME280;22287;50.824;5.644;2023-02-04T04:26:54;102621.28;;;8.60;78.70
36248;BME280;22287;50.824;5.644;2023-02-04T04:29:21;102620.72;;;8.53;79.08
36248;BME280;22287;50.824;5.644;2023-02-04T04:31:48;102612.56;;;8.55;78.97
36248;BME280;22287;50.824;5.644;2023-02-04T04:34:15;102613.50;;;8.54;78.76
36248;BME280;22287;50.824;5.644;2023-02-04T04:36:42;102623.50;;;8.32;79.74
36248;BME280;22287;50.824;5.644;2023-02-04T04:39:09;102622.69;;;8.30;79.94
36248;BME280;22287;50.824;5.644;2023-02-04T04:41:36;102621.47;;;8.16;80.95
36248;BME280;22287;50.824;5.644;2023-02-04T04:44:03;102621.22;;;8.02;81.35
36248;BME280;22287;50.824;5.644;2023-02-04T04:46:30;102619.75;;;7.95;81.83
36248;BME280;22287;50.824;5.644;2023-02-04T04:48:57;102612.94;;;8.27;80.36
36248;BME280;22287;50.824;5.644;2023-02-04T04:51:23;102623.59;;;8.30;80.03
36248;BME280;22287;50.824;5.644;2023-02-04T04:53:53;102615.75;;;8.44;79.78
36248;BME280;22287;50.824;5.644;2023-02-04T04:56:20;102621.56;;;8.54;79.31
36248;BME280;22287;50.824;5.644;2023-02-04T04:58:47;102622.91;;;8.64;79.04
36248;BME280;22287;50.824;5.644;2023-02-04T05:01:14;102622.41;;;8.56;78.96
36248;BME280;22287;50.824;5.644;2023-02-04T05:03:41;102633.50;;;8.48;79.36
36248;BME280;22287;50.824;5.644;2023-02-04T05:06:08;102628.44;;;8.61;78.67
36248;BME280;22287;50.824;5.644;2023-02-04T05:08:36;102628.19;;;8.26;79.80
36248;BME280;22287;50.824;5.644;2023-02-04T05:11:03;102631.25;;;8.39;79.94
36248;BME280;22287;50.824;5.644;2023-02-04T05:13:29;102634.00;;;8.38;79.57
36248;BME280;22287;50.824;5.644;2023-02-04T05:15:56;102628.16;;;8.08;80.72
36248;BME280;22287;50.824;5.644;2023-02-04T05:18:23;102624.19;;;8.16;80.47
36248;BME280;22287;50.824;5.644;2023-02-04T05:20:50;102628.97;;;8.30;80.07
36248;BME280;22287;50.824;5.644;2023-02-04T05:23:16;102626.91;;;8.15;80.38
36248;BME280;22287;50.824;5.644;2023-02-04T05:25:43;102641.88;;;8.22;80.11
36248;BME280;22287;50.824;5.644;2023-02-04T05:28:10;102635.69;;;8.40;79.22
36248;BME280;22287;50.824;5.644;2023-02-04T05:30:36;102641.44;;;8.33;79.12
36248;BME280;22287;50.824;5.644;2023-02-04T05:33:03;102640.06;;;8.43;78.98
36248;BME280;22287;50.824;5.644;2023-02-04T05:35:30;102637.50;;;8.40;78.79
36248;BME280;22287;50.824;5.644;2023-02-04T05:37:57;102635.91;;;8.36;78.87
36248;BME280;22287;50.824;5.644;2023-02-04T05:40:24;102627.28;;;8.27;79.05
36248;BME280;22287;50.824;5.644;2023-02-04T05:42:51;102623.81;;;8.24;78.84
36248;BME280;22287;50.824;5.644;2023-02-04T05:45:18;102627.00;;;8.13;78.90
36248;BME280;22287;50.824;5.644;2023-02-04T05:47:44;102643.81;;;8.18;78.54
36248;BME280;22287;50.824;5.644;2023-02-04T05:50:11;102638.53;;;8.17;78.09
36248;BME280;22287;50.824;5.644;2023-02-04T05:52:38;102654.75;;;7.95;78.39
36248;BME280;22287;50.824;5.644;2023-02-04T05:55:07;102649.53;;;7.70;78.84
36248;BME280;22287;50.824;5.644;2023-02-04T05:57:34;102646.09;;;7.87;78.47
36248;BME280;22287;50.824;5.644;2023-02-04T06:00:01;102655.00;;;7.89;77.77
36248;BME280;22287;50.824;5.644;2023-02-04T06:02:37;102658.19;;;7.57;78.95
36248;BME280;22287;50.824;5.644;2023-02-04T06:05:05;102659.59;;;7.45;79.61
36248;BME280;22287;50.824;5.644;2023-02-04T06:07:33;102663.56;;;7.57;79.34
36248;BME280;22287;50.824;5.644;2023-02-04T06:10:00;102669.59;;;7.42;79.47
36248;BME280;22287;50.824;5.644;2023-02-04T06:12:26;102677.34;;;7.49;79.11
36248;BME280;22287;50.824;5.644;2023-02-04T06:14:53;102666.88;;;7.63;78.30
36248;BME280;22287;50.824;5.644;2023-02-04T06:17:20;102674.13;;;7.83;77.64
36248;BME280;22287;50.824;5.644;2023-02-04T06:19:47;102680.78;;;7.53;77.99
36248;BME280;22287;50.824;5.644;2023-02-04T06:22:13;102675.75;;;7.65;77.89
36248;BME280;22287;50.824;5.644;2023-02-04T06:24:40;102677.59;;;7.85;77.55
36248;BME280;22287;50.824;5.644;2023-02-04T06:27:07;102674.44;;;7.76;77.20
36248;BME280;22287;50.824;5.644;2023-02-04T06:29:34;102676.72;;;7.64;77.54
36248;BME280;22287;50.824;5.644;2023-02-04T06:32:01;102677.22;;;7.52;78.26
36248;BME280;22287;50.824;5.644;2023-02-04T06:34:28;102678.97;;;7.32;78.81
36248;BME280;22287;50.824;5.644;2023-02-04T06:36:55;102688.34;;;7.22;78.78
36248;BME280;22287;50.824;5.644;2023-02-04T06:39:22;102682.50;;;7.10;79.00
36248;BME280;22287;50.824;5.644;2023-02-04T06:41:48;102688.63;;;7.37;78.57
36248;BME280;22287;50.824;5.644;2023-02-04T06:44:15;102686.66;;;7.41;78.23
36248;BME280;22287;50.824;5.644;2023-02-04T06:46:42;102690.09;;;7.44;77.42
36248;BME280;22287;50.824;5.644;2023-02-04T06:49:09;102695.03;;;7.33;76.94
36248;BME280;22287;50.824;5.644;2023-02-04T06:51:36;102693.34;;;7.31;76.26
36248;BME280;22287;50.824;5.644;2023-02-04T06:54:02;102698.75;;;7.31;76.00
36248;BME280;22287;50.824;5.644;2023-02-04T06:56:29;102702.97;;;7.15;76.88
36248;BME280;22287;50.824;5.644;2023-02-04T06:58:56;102698.72;;;7.09;77.33
36248;BME280;22287;50.824;5.644;2023-02-04T07:01:22;102695.59;;;7.20;76.71
36248;BME280;22287;50.824;5.644;2023-02-04T07:03:49;102708.00;;;7.00;76.99
36248;BME280;22287;50.824;5.644;2023-02-04T07:06:16;102704.75;;;6.92;77.65
36248;BME280;22287;50.824;5.644;2023-02-04T07:08:43;102713.28;;;7.03;77.18
36248;BME280;22287;50.824;5.644;2023-02-04T07:11:10;102713.78;;;7.13;77.19
36248;BME280;22287;50.824;5.644;2023-02-04T07:13:36;102712.09;;;7.10;77.65
36248;BME280;22287;50.824;5.644;2023-02-04T07:16:03;102722.41;;;7.21;77.03
36248;BME280;22287;50.824;5.644;2023-02-04T07:18:32;102722.59;;;7.17;76.95
36248;BME280;22287;50.824;5.644;2023-02-04T07:20:58;102722.03;;;7.08;77.13
36248;BME280;22287;50.824;5.644;2023-02-04T07:23:25;102730.78;;;7.14;77.25
36248;BME280;22287;50.824;5.644;2023-02-04T07:25:53;102735.97;;;7.18;76.78
36248;BME280;22287;50.824;5.644;2023-02-04T07:28:22;102740.66;;;7.13;77.33
36248;BME280;22287;50.824;5.644;2023-02-04T07:30:49;102741.13;;;7.24;77.62
36248;BME280;22287;50.824;5.644;2023-02-04T07:33:16;102744.56;;;7.28;77.31
36248;BME280;22287;50.824;5.644;2023-02-04T07:35:43;102738.19;;;7.30;77.55
36248;BME280;22287;50.824;5.644;2023-02-04T07:38:10;102737.41;;;7.28;77.78
36248;BME280;22287;50.824;5.644;2023-02-04T07:40:37;102751.41;;;7.36;77.66
36248;BME280;22287;50.824;5.644;2023-02-04T07:43:04;102744.56;;;7.51;77.25
36248;BME280;22287;50.824;5.644;2023-02-04T07:45:32;102744.69;;;7.48;77.23
36248;BME280;22287;50.824;5.644;2023-02-04T07:47:59;102739.66;;;7.39;77.61
36248;BME280;22287;50.824;5.644;2023-02-04T07:50:26;102746.16;;;7.55;77.47
36248;BME280;22287;50.824;5.644;2023-02-04T07:52:53;102743.53;;;7.97;76.93
36248;BME280;22287;50.824;5.644;2023-02-04T07:55:20;102755.06;;;7.57;78.42
36248;BME280;22287;50.824;5.644;2023-02-04T07:58:00;102757.56;;;7.83;77.13
36248;BME280;22287;50.824;5.644;2023-02-04T08:00:41;102761.59;;;7.73;78.33
36248;BME280;22287;50.824;5.644;2023-02-04T08:03:08;102760.06;;;7.44;79.37
36248;BME280;22287;50.824;5.644;2023-02-04T08:05:35;102759.06;;;7.47;79.92
36248;BME280;22287;50.824;5.644;2023-02-04T08:08:02;102758.69;;;7.56;79.68
36248;BME280;22287;50.824;5.644;2023-02-04T08:10:29;102768.66;;;7.31;80.87
36248;BME280;22287;50.824;5.644;2023-02-04T08:12:56;102766.97;;;7.73;79.65
36248;BME280;22287;50.824;5.644;2023-02-04T08:15:23;102772.78;;;7.84;79.40
36248;BME280;22287;50.824;5.644;2023-02-04T08:17:49;102772.94;;;8.01;78.50
36248;BME280;22287;50.824;5.644;2023-02-04T08:20:16;102772.91;;;8.23;78.46
36248;BME280;22287;50.824;5.644;2023-02-04T08:22:47;102787.28;;;8.02;78.63
36248;BME280;22287;50.824;5.644;2023-02-04T08:25:14;102789.81;;;7.85;79.78
36248;BME280;22287;50.824;5.644;2023-02-04T08:27:41;102784.94;;;7.73;80.61
36248;BME280;22287;50.824;5.644;2023-02-04T08:30:09;102786.72;;;8.15;79.42
36248;BME280;22287;50.824;5.644;2023-02-04T08:32:36;102789.59;;;8.33;78.18
36248;BME280;22287;50.824;5.644;2023-02-04T08:35:04;102794.34;;;8.26;78.76
36248;BME280;22287;50.824;5.644;2023-02-04T08:37:32;102795.69;;;7.94;79.55
36248;BME280;22287;50.824;5.644;2023-02-04T08:39:59;102795.31;;;8.03;80.74
36248;BME280;22287;50.824;5.644;2023-02-04T08:42:26;102798.44;;;8.56;78.96
36248;BME280;22287;50.824;5.644;2023-02-04T08:44:52;102795.69;;;8.78;77.74
36248;BME280;22287;50.824;5.644;2023-02-04T08:47:19;102799.56;;;8.51;78.50
36248;BME280;22287;50.824;5.644;2023-02-04T08:49:46;102803.91;;;8.75;78.27
36248;BME280;22287;50.824;5.644;2023-02-04T08:52:13;102804.50;;;9.02;77.56
36248;BME280;22287;50.824;5.644;2023-02-04T08:54:40;102800.22;;;9.16;77.19
36248;BME280;22287;50.824;5.644;2023-02-04T08:57:07;102796.88;;;9.11;77.41
36248;BME280;22287;50.824;5.644;2023-02-04T08:59:34;102799.75;;;9.07;77.66
36248;BME280;22287;50.824;5.644;2023-02-04T09:02:01;102801.25;;;9.32;77.12
36248;BME280;22287;50.824;5.644;2023-02-04T09:04:28;102808.69;;;8.89;79.26
36248;BME280;22287;50.824;5.644;2023-02-04T09:06:55;102813.72;;;9.35;77.04
36248;BME280;22287;50.824;5.644;2023-02-04T09:09:22;102811.44;;;9.26;77.15
36248;BME280;22287;50.824;5.644;2023-02-04T09:11:51;102818.31;;;8.94;78.41
36248;BME280;22287;50.824;5.644;2023-02-04T09:14:18;102820.63;;;8.63;79.73
36248;BME280;22287;50.824;5.644;2023-02-04T09:16:45;102802.25;;;9.11;78.04
36248;BME280;22287;50.824;5.644;2023-02-04T09:19:14;102812.78;;;9.36;77.93
36248;BME280;22287;50.824;5.644;2023-02-04T09:21:42;102809.84;;;9.59;76.89
36248;BME280;22287;50.824;5.644;2023-02-04T09:24:08;102811.00;;;9.72;76.26
36248;BME280;22287;50.824;5.644;2023-02-04T09:26:36;102810.03;;;9.75;75.90
36248;BME280;22287;50.824;5.644;2023-02-04T09:29:02;102817.28;;;9.73;76.05
36248;BME280;22287;50.824;5.644;2023-02-04T09:31:29;102813.50;;;9.39;76.16
36248;BME280;22287;50.824;5.644;2023-02-04T09:33:56;102818.03;;;9.58;76.15
36248;BME280;22287;50.824;5.644;2023-02-04T09:36:23;102822.97;;;9.67;76.50
36248;BME280;22287;50.824;5.644;2023-02-04T09:38:54;102824.09;;;9.81;76.18
36248;BME280;22287;50.824;5.644;2023-02-04T09:41:21;102834.91;;;9.63;76.82
36248;BME280;22287;50.824;5.644;2023-02-04T09:43:48;102831.69;;;9.36;78.81
36248;BME280;22287;50.824;5.644;2023-02-04T09:46:20;102822.97;;;9.67;76.80
36248;BME280;22287;50.824;5.644;2023-02-04T09:48:48;102826.28;;;9.55;76.77
36248;BME280;22287;50.824;5.644;2023-02-04T09:51:21;102833.59;;;9.53;76.76
36248;BME280;22287;50.824;5.644;2023-02-04T09:53:49;102834.44;;;8.96;78.21
36248;BME280;22287;50.824;5.644;2023-02-04T09:56:19;102828.34;;;9.11;78.55
36248;BME280;22287;50.824;5.644;2023-02-04T09:58:46;102833.22;;;9.79;75.58
36248;BME280;22287;50.824;5.644;2023-02-04T10:01:16;102832.09;;;9.64;75.89
36248;BME280;22287;50.824;5.644;2023-02-04T10:03:45;102832.72;;;9.71;75.44
36248;BME280;22287;50.824;5.644;2023-02-04T10:06:17;102833.66;;;9.88;75.11
36248;BME280;22287;50.824;5.644;2023-02-04T10:08:47;102828.34;;;10.23;74.67
36248;BME280;22287;50.824;5.644;2023-02-04T10:11:16;102827.19;;;10.10;76.25
36248;BME280;22287;50.824;5.644;2023-02-04T10:13:52;102843.84;;;10.19;74.73
36248;BME280;22287;50.824;5.644;2023-02-04T10:16:23;102836.41;;;9.87;76.61
36248;BME280;22287;50.824;5.644;2023-02-04T10:19:01;102839.56;;;9.96;75.78
36248;BME280;22287;50.824;5.644;2023-02-04T10:21:29;102829.97;;;10.61;73.25
36248;BME280;22287;50.824;5.644;2023-02-04T10:24:00;102842.59;;;9.89;77.00
36248;BME280;22287;50.824;5.644;2023-02-04T10:26:29;102851.69;;;10.42;74.82
36248;BME280;22287;50.824;5.644;2023-02-04T10:29:11;102852.53;;;10.26;74.43
36248;BME280;22287;50.824;5.644;2023-02-04T10:31:41;102859.81;;;10.59;73.27
36248;BME280;22287;50.824;5.644;2023-02-04T10:34:13;102854.00;;;10.84;71.75
36248;BME280;22287;50.824;5.644;2023-02-04T10:36:46;102864.41;;;10.75;71.71
36248;BME280;22287;50.824;5.644;2023-02-04T10:39:22;102865.41;;;10.02;74.47
36248;BME280;22287;50.824;5.644;2023-02-04T10:42:00;102866.56;;;9.20;77.12
36248;BME280;22287;50.824;5.644;2023-02-04T10:44:32;102865.97;;;9.90;75.86
36248;BME280;22287;50.824;5.644;2023-02-04T10:47:03;102864.75;;;9.60;76.14
36248;BME280;22287;50.824;5.644;2023-02-04T10:49:31;102853.66;;;10.22;74.71
36248;BME280;22287;50.824;5.644;2023-02-04T10:51:59;102853.81;;;10.53;72.01
36248;BME280;22287;50.824;5.644;2023-02-04T10:54:31;102854.88;;;10.50;71.71
36248;BME280;22287;50.824;5.644;2023-02-04T10:57:28;102854.72;;;10.71;70.56
36248;BME280;22287;50.824;5.644;2023-02-04T11:00:00;102851.53;;;10.45;71.00
36248;BME280;22287;50.824;5.644;2023-02-04T11:05:28;102861.66;;;9.86;74.64
36248;BME280;22287;50.824;5.644;2023-02-04T11:07:55;102857.53;;;10.33;73.71
36248;BME280;22287;50.824;5.644;2023-02-04T11:10:27;102848.69;;;10.66;72.36
36248;BME280;22287;50.824;5.644;2023-02-04T11:15:42;102849.78;;;10.61;72.50
36248;BME280;22287;50.824;5.644;2023-02-04T11:20:37;102855.81;;;10.67;71.39
36248;BME280;22287;50.824;5.644;2023-02-04T11:26:13;102862.66;;;10.56;71.21
36248;BME280;22287;50.824;5.644;2023-02-04T11:39:47;102861.97;;;11.37;68.26
36248;BME280;22287;50.824;5.644;2023-02-04T11:42:38;102859.09;;;11.40;68.56
36248;BME280;22287;50.824;5.644;2023-02-04T11:45:12;102869.56;;;11.13;68.22
36248;BME280;22287;50.824;5.644;2023-02-04T11:47:40;102861.88;;;10.72;71.04
36248;BME280;22287;50.824;5.644;2023-02-04T11:50:24;102866.34;;;10.90;70.77
36248;BME280;22287;50.824;5.644;2023-02-04T11:52:53;102862.81;;;11.05;70.19
36248;BME280;22287;50.824;5.644;2023-02-04T11:55:20;102857.34;;;10.89;72.02
36248;BME280;22287;50.824;5.644;2023-02-04T11:57:51;102861.28;;;11.16;69.98
36248;BME280;22287;50.824;5.644;2023-02-04T12:00:28;102851.50;;;11.14;69.36
36248;BME280;22287;50.824;5.644;2023-02-04T12:02:59;102861.59;;;11.10;68.16
36248;BME280;22287;50.824;5.644;2023-02-04T12:05:42;102866.66;;;11.01;68.78
36248;BME280;22287;50.824;5.644;2023-02-04T12:08:30;102860.16;;;11.38;68.27
36248;BME280;22287;50.824;5.644;2023-02-04T12:13:25;102865.88;;;11.32;65.74
36248;BME280;22287;50.824;5.644;2023-02-04T12:16:00;102862.31;;;11.14;67.77
36248;BME280;22287;50.824;5.644;2023-02-04T12:18:28;102859.75;;;11.28;68.08
36248;BME280;22287;50.824;5.644;2023-02-04T12:20:56;102861.63;;;11.76;66.75
36248;BME280;22287;50.824;5.644;2023-02-04T12:23:24;102859.84;;;11.27;68.30
36248;BME280;22287;50.824;5.644;2023-02-04T12:25:51;102865.66;;;11.52;65.36
36248;BME280;22287;50.824;5.644;2023-02-04T12:28:18;102861.88;;;11.71;66.21
36248;BME280;22287;50.824;5.644;2023-02-04T12:30:59;102855.47;;;11.57;68.77
36248;BME280;22287;50.824;5.644;2023-02-04T12:33:26;102859.72;;;11.78;67.36
36248;BME280;22287;50.824;5.644;2023-02-04T12:35:53;102855.97;;;11.15;69.04
36248;BME280;22287;50.824;5.644;2023-02-04T12:38:34;102848.97;;;10.94;70.09
36248;BME280;22287;50.824;5.644;2023-02-04T12:41:19;102852.34;;;10.99;69.93
36248;BME280;22287;50.824;5.644;2023-02-04T12:44:05;102862.28;;;10.98;69.57
36248;BME280;22287;50.824;5.644;2023-02-04T12:46:30;102859.09;;;10.90;69.71
36248;BME280;22287;50.824;5.644;2023-02-04T12:48:56;102856.16;;;10.78;71.37
36248;BME280;22287;50.824;5.644;2023-02-04T12:51:23;102854.63;;;10.72;71.25
36248;BME280;22287;50.824;5.644;2023-02-04T12:54:00;102854.03;;;10.31;73.03
36248;BME280;22287;50.824;5.644;2023-02-04T12:56:26;102853.13;;;10.67;71.85
36248;BME280;22287;50.824;5.644;2023-02-04T12:59:07;102864.09;;;10.81;70.94
36248;BME280;22287;50.824;5.644;2023-02-04T13:01:48;102865.38;;;10.74;71.03
36248;BME280;22287;50.824;5.644;2023-02-04T13:04:29;102863.31;;;10.96;70.70
36248;BME280;22287;50.824;5.644;2023-02-04T13:07:09;102870.16;;;10.69;71.07
36248;BME280;22287;50.824;5.644;2023-02-04T13:09:50;102857.91;;;10.96;70.59
36248;BME280;22287;50.824;5.644;2023-02-04T13:12:17;102860.41;;;11.49;69.07
36248;BME280;22287;50.824;5.644;2023-02-04T13:14:58;102853.84;;;11.37;69.55
36248;BME280;22287;50.824;5.644;2023-02-04T13:17:25;102850.00;;;11.08;69.95
36248;BME280;22287;50.824;5.644;2023-02-04T13:19:52;102851.94;;;11.39;69.14
36248;BME280;22287;50.824;5.644;2023-02-04T13:22:19;102849.06;;;11.42;68.49
36248;BME280;22287;50.824;5.644;2023-02-04T13:24:46;102840.78;;;11.61;68.15
36248;BME280;22287;50.824;5.644;2023-02-04T13:27:12;102848.28;;;11.40;68.91
36248;BME280;22287;50.824;5.644;2023-02-04T13:29:40;102847.56;;;11.52;68.44
36248;BME280;22287;50.824;5.644;2023-02-04T13:32:07;102843.59;;;11.59;68.60